createdAt,value
2019-01-31T00:01:51.274Z,3.40
2019-01-31T00:04:20.759Z,3.40
2019-01-31T00:06:28.311Z,3.30
2019-01-31T00:08:46.587Z,3.20
2019-01-31T00:10:49.651Z,3.20
2019-01-31T00:13:13.012Z,3.10
2019-01-31T00:15:19.410Z,3.10
2019-01-31T00:17:38.090Z,3.10
2019-01-31T00:19:46.519Z,3.00
2019-01-31T00:21:50.287Z,3.00
2019-01-31T00:24:08.808Z,2.90
2019-01-31T00:26:14.578Z,2.90
2019-01-31T00:28:46.188Z,2.80
2019-01-31T00:31:22.162Z,2.70
2019-01-31T00:33:26.831Z,2.70
2019-01-31T00:35:41.165Z,2.60
2019-01-31T00:37:51.794Z,2.60
2019-01-31T00:40:04.014Z,2.50
2019-01-31T00:42:08.339Z,2.50
2019-01-31T00:44:29.776Z,2.40
2019-01-31T00:46:41.292Z,2.40
2019-01-31T00:48:47.801Z,2.30
2019-01-31T00:50:54.695Z,2.30
2019-01-31T00:53:14.452Z,2.30
2019-01-31T00:55:19.232Z,2.20
2019-01-31T00:57:43.630Z,2.20
2019-01-31T01:00:05.238Z,2.20
2019-01-31T01:02:10.847Z,2.10
2019-01-31T01:04:17.713Z,2.10
2019-01-31T01:06:49.430Z,2.10
2019-01-31T01:09:07.566Z,2.10
2019-01-31T01:11:20.982Z,2.00
2019-01-31T01:13:33.335Z,2.00
2019-01-31T01:15:37.109Z,2.00
2019-01-31T01:17:40.808Z,2.00
2019-01-31T01:19:51.508Z,1.90
2019-01-31T01:22:00.811Z,1.90
2019-01-31T01:24:08.494Z,1.90
2019-01-31T01:26:19.039Z,1.90
2019-01-31T01:28:44.444Z,1.90
2019-01-31T01:30:54.900Z,1.90
2019-01-31T01:33:16.143Z,1.90
2019-01-31T01:35:22.706Z,1.90
2019-01-31T01:37:25.626Z,1.90
2019-01-31T01:39:33.270Z,1.90
2019-01-31T01:41:39.535Z,1.80
2019-01-31T01:43:47.191Z,1.80
2019-01-31T01:46:13.489Z,1.80
2019-01-31T01:48:19.132Z,1.90
2019-01-31T01:50:26.687Z,1.90
2019-01-31T01:52:43.134Z,1.90
2019-01-31T01:54:53.679Z,1.80
2019-01-31T01:57:02.159Z,1.90
2019-01-31T01:59:20.842Z,1.90
2019-01-31T02:01:29.627Z,1.90
2019-01-31T02:03:55.920Z,1.80
2019-01-31T02:06:14.476Z,1.90
2019-01-31T02:11:11.815Z,1.90
2019-01-31T02:13:21.381Z,2.00
2019-01-31T02:15:31.262Z,2.00
2019-01-31T02:17:44.836Z,2.00
2019-01-31T02:19:58.610Z,2.00
2019-01-31T02:22:24.070Z,1.90
2019-01-31T02:24:28.741Z,1.90
2019-01-31T02:29:33.402Z,1.90
2019-01-31T02:31:44.738Z,2.00
2019-01-31T02:34:04.487Z,2.10
2019-01-31T02:36:10.450Z,2.10
2019-01-31T02:38:19.386Z,2.10
2019-01-31T02:40:56.774Z,2.10
2019-01-31T02:43:00.569Z,2.10
2019-01-31T02:47:54.092Z,2.30
2019-01-31T02:50:21.739Z,2.30
2019-01-31T02:52:31.427Z,2.40
2019-01-31T02:54:40.003Z,2.40
2019-01-31T02:57:11.381Z,2.40
2019-01-31T02:59:31.062Z,2.40
2019-01-31T03:01:36.907Z,2.40
2019-01-31T03:03:46.394Z,2.40
2019-01-31T03:06:14.045Z,2.40
2019-01-31T03:08:35.692Z,2.40
2019-01-31T03:10:48.844Z,2.40
2019-01-31T03:13:08.492Z,2.40
2019-01-31T03:15:15.155Z,2.50
2019-01-31T03:20:07.793Z,2.50
2019-01-31T03:22:33.349Z,2.70
2019-01-31T03:24:38.809Z,2.70
2019-01-31T03:26:50.542Z,2.80
2019-01-31T03:29:11.129Z,2.80
2019-01-31T03:31:22.570Z,2.80
2019-01-31T03:33:37.966Z,2.80
2019-01-31T03:35:57.541Z,2.80
2019-01-31T03:38:01.418Z,2.80
2019-01-31T03:40:12.075Z,2.80
2019-01-31T03:42:16.673Z,2.80
2019-01-31T03:44:40.950Z,2.80
2019-01-31T03:46:46.565Z,2.80
2019-01-31T03:49:09.281Z,2.80
2019-01-31T03:51:18.619Z,2.90
2019-01-31T03:53:43.263Z,2.90
2019-01-31T03:56:07.855Z,2.90
2019-01-31T03:58:29.372Z,2.90
2019-01-31T04:00:38.902Z,2.90
2019-01-31T04:02:48.342Z,2.90
2019-01-31T04:05:04.693Z,3.00
2019-01-31T04:07:07.663Z,2.90
2019-01-31T04:09:10.807Z,3.00
2019-01-31T04:11:14.611Z,3.00
2019-01-31T04:13:18.271Z,3.00
2019-01-31T04:15:21.293Z,3.00
2019-01-31T04:17:24.956Z,3.10
2019-01-31T04:19:27.878Z,3.00
2019-01-31T04:21:31.589Z,3.10
2019-01-31T04:23:34.515Z,3.10
2019-01-31T04:25:37.399Z,3.10
2019-01-31T04:27:40.522Z,3.10
2019-01-31T04:29:44.187Z,3.10
2019-01-31T04:31:47.103Z,3.10
2019-01-31T04:33:50.841Z,3.10
2019-01-31T04:35:53.738Z,3.10
2019-01-31T04:37:56.652Z,3.10
2019-01-31T04:39:59.579Z,3.10
2019-01-31T04:42:02.482Z,3.10
2019-01-31T04:44:05.401Z,3.10
2019-01-31T04:46:09.093Z,3.10
2019-01-31T04:48:12.094Z,3.10
2019-01-31T04:50:15.757Z,3.10
2019-01-31T04:52:18.792Z,3.10
2019-01-31T04:54:21.706Z,3.10
2019-01-31T04:56:24.633Z,3.10
2019-01-31T04:58:28.342Z,3.10
2019-01-31T05:00:32.089Z,3.10
2019-01-31T05:02:34.994Z,3.10
2019-01-31T05:04:39.547Z,3.10
2019-01-31T05:06:43.218Z,3.10
2019-01-31T05:08:46.243Z,3.10
2019-01-31T05:10:49.327Z,3.10
2019-01-31T05:12:52.238Z,3.10
2019-01-31T05:14:55.138Z,3.10
2019-01-31T05:16:58.085Z,3.10
2019-01-31T05:19:00.989Z,3.10
2019-01-31T05:21:04.022Z,3.10
2019-01-31T05:23:07.824Z,3.10
2019-01-31T05:25:11.485Z,3.10
2019-01-31T05:27:14.517Z,3.10
2019-01-31T05:29:18.415Z,3.10
2019-01-31T05:31:22.075Z,3.10
2019-01-31T05:33:24.997Z,3.10
2019-01-31T05:35:28.702Z,3.10
2019-01-31T05:37:31.733Z,3.10
2019-01-31T05:39:34.762Z,3.10
2019-01-31T05:41:38.445Z,3.00
2019-01-31T05:43:42.845Z,3.00
2019-01-31T05:45:45.861Z,3.00
2019-01-31T05:47:49.686Z,3.00
2019-01-31T05:49:52.580Z,3.00
2019-01-31T05:51:55.502Z,3.00
2019-01-31T05:53:58.429Z,2.90
2019-01-31T05:56:01.658Z,2.90
2019-01-31T05:58:04.560Z,2.90
2019-01-31T06:00:08.801Z,2.90
2019-01-31T06:02:11.705Z,2.90
2019-01-31T06:04:14.622Z,2.90
2019-01-31T06:06:17.554Z,2.80
2019-01-31T06:08:20.470Z,2.80
2019-01-31T06:10:23.382Z,2.80
2019-01-31T06:12:26.504Z,2.80
2019-01-31T06:14:29.428Z,2.70
2019-01-31T06:16:32.334Z,2.70
2019-01-31T06:18:36.044Z,2.70
2019-01-31T06:20:40.667Z,2.70
2019-01-31T06:22:44.346Z,2.70
2019-01-31T06:24:48.359Z,2.70
2019-01-31T06:26:51.334Z,2.70
2019-01-31T06:28:54.342Z,2.70
2019-01-31T06:30:58.042Z,2.70
2019-01-31T06:33:01.719Z,2.70
2019-01-31T06:35:04.747Z,2.70
2019-01-31T06:37:07.690Z,2.70
2019-01-31T06:39:10.621Z,2.80
2019-01-31T06:41:18.659Z,2.80
2019-01-31T06:43:16.611Z,2.80
2019-01-31T06:45:19.947Z,2.80
2019-01-31T06:47:23.619Z,2.80
2019-01-31T06:49:26.692Z,2.80
2019-01-31T06:51:29.595Z,2.90
2019-01-31T06:53:32.508Z,2.90
2019-01-31T06:55:36.228Z,2.90
2019-01-31T06:57:39.130Z,2.90
2019-01-31T06:59:42.109Z,2.90
2019-01-31T07:01:45.060Z,2.90
2019-01-31T07:03:47.972Z,2.90
2019-01-31T07:05:50.883Z,2.90
2019-01-31T07:07:54.015Z,2.90
2019-01-31T07:09:56.923Z,2.90
2019-01-31T07:11:59.822Z,3.00
2019-01-31T07:14:02.763Z,3.00
2019-01-31T07:16:05.675Z,3.00
2019-01-31T07:18:08.585Z,3.00
2019-01-31T07:20:12.619Z,3.00
2019-01-31T07:22:16.282Z,3.10
2019-01-31T07:24:19.287Z,3.00
2019-01-31T07:26:22.985Z,3.10
2019-01-31T07:28:26.663Z,3.10
2019-01-31T07:30:29.591Z,3.10
2019-01-31T07:32:32.889Z,3.10
2019-01-31T07:34:35.795Z,3.10
2019-01-31T07:36:38.707Z,3.10
2019-01-31T07:38:42.486Z,3.10
2019-01-31T07:40:45.389Z,3.10
2019-01-31T07:42:48.822Z,3.20
2019-01-31T07:44:51.820Z,3.20
2019-01-31T07:46:54.727Z,3.20
2019-01-31T07:48:57.644Z,3.20
2019-01-31T07:51:01.544Z,3.20
2019-01-31T07:53:05.122Z,3.20
2019-01-31T07:55:08.056Z,3.20
2019-01-31T07:57:11.114Z,3.20
2019-01-31T07:59:14.812Z,3.30
2019-01-31T08:01:18.483Z,3.30
2019-01-31T08:03:21.427Z,3.30
2019-01-31T08:05:24.346Z,3.30
2019-01-31T08:07:28.821Z,3.30
2019-01-31T08:09:30.359Z,3.30
2019-01-31T08:11:33.317Z,3.30
2019-01-31T08:13:36.990Z,3.30
2019-01-31T08:15:39.934Z,3.30
2019-01-31T08:17:42.851Z,3.40
2019-01-31T08:19:45.871Z,3.40
2019-01-31T08:21:49.674Z,3.40
2019-01-31T08:23:53.347Z,3.40
2019-01-31T08:25:56.356Z,3.40
2019-01-31T08:28:00.159Z,3.50
2019-01-31T08:30:03.830Z,3.50
2019-01-31T08:32:06.759Z,3.50
2019-01-31T08:34:09.700Z,3.50
2019-01-31T08:36:12.708Z,3.50
2019-01-31T08:38:16.522Z,3.60
2019-01-31T08:40:19.437Z,3.60
2019-01-31T08:42:22.366Z,3.60
2019-01-31T08:44:25.460Z,3.60
2019-01-31T08:46:29.212Z,3.70
2019-01-31T08:48:32.116Z,3.60
2019-01-31T08:50:35.446Z,3.70
2019-01-31T08:52:38.354Z,3.70
2019-01-31T08:54:41.262Z,3.70
2019-01-31T08:56:45.813Z,3.80
2019-01-31T08:58:49.492Z,3.80
2019-01-31T09:00:53.212Z,3.80
2019-01-31T09:02:56.883Z,3.80
2019-01-31T09:04:59.897Z,3.80
2019-01-31T09:07:03.622Z,3.90
2019-01-31T09:09:06.554Z,3.90
2019-01-31T09:11:09.562Z,4.00
2019-01-31T09:13:13.363Z,4.10
2019-01-31T09:15:17.928Z,4.10
2019-01-31T09:17:20.969Z,4.10
2019-01-31T09:19:24.677Z,4.20
2019-01-31T09:21:27.599Z,4.20
2019-01-31T09:23:41.234Z,4.20
2019-01-31T09:25:51.961Z,4.20
2019-01-31T09:28:06.626Z,4.30
2019-01-31T09:30:13.075Z,4.30
2019-01-31T09:32:22.438Z,4.40
2019-01-31T09:34:31.014Z,4.40
2019-01-31T09:36:46.249Z,4.50
2019-01-31T09:39:14.120Z,4.40
2019-01-31T09:41:17.895Z,4.50
2019-01-31T09:43:40.252Z,4.50
2019-01-31T09:45:51.830Z,4.50
2019-01-31T09:48:03.351Z,4.50
2019-01-31T09:50:08.084Z,4.60
2019-01-31T09:52:16.327Z,4.60
2019-01-31T09:54:30.098Z,4.60
2019-01-31T09:56:55.642Z,4.60
2019-01-31T09:59:06.842Z,4.70
2019-01-31T10:01:25.564Z,4.60
2019-01-31T10:03:34.850Z,4.70
2019-01-31T10:05:53.653Z,4.70
2019-01-31T10:07:57.452Z,4.70
2019-01-31T10:10:23.024Z,4.80
2019-01-31T10:12:38.684Z,4.70
2019-01-31T10:14:57.067Z,4.80
2019-01-31T10:17:02.806Z,4.80
2019-01-31T10:19:30.318Z,4.80
2019-01-31T10:21:55.499Z,4.80
2019-01-31T10:24:22.321Z,4.80
2019-01-31T10:26:41.094Z,4.80
2019-01-31T10:28:53.360Z,4.80
2019-01-31T10:31:12.045Z,4.80
2019-01-31T10:33:34.509Z,4.80
2019-01-31T10:35:53.270Z,4.80
2019-01-31T10:38:03.772Z,4.80
2019-01-31T10:40:19.418Z,4.80
2019-01-31T10:42:31.034Z,4.80
2019-01-31T10:44:47.110Z,4.80
2019-01-31T10:46:59.915Z,4.80
2019-01-31T10:49:02.871Z,4.80
2019-01-31T10:51:08.225Z,4.80
2019-01-31T10:53:37.911Z,4.80
2019-01-31T10:56:01.626Z,4.80
2019-01-31T10:58:22.244Z,4.80
2019-01-31T11:00:30.296Z,4.80
2019-01-31T11:02:47.875Z,4.80
2019-01-31T11:05:07.971Z,4.90
2019-01-31T11:07:19.411Z,4.90
2019-01-31T11:09:37.926Z,4.90
2019-01-31T11:11:58.580Z,4.90
2019-01-31T11:14:09.963Z,4.90
2019-01-31T11:16:16.728Z,4.90
2019-01-31T11:18:21.627Z,5.00
2019-01-31T11:20:31.035Z,5.00
2019-01-31T11:22:39.559Z,5.00
2019-01-31T11:24:54.067Z,5.00
2019-01-31T11:27:12.287Z,5.00
2019-01-31T11:29:20.832Z,5.10
2019-01-31T11:31:35.078Z,5.10
2019-01-31T11:33:57.889Z,5.10
2019-01-31T11:36:27.447Z,5.10
2019-01-31T11:38:40.018Z,5.10
2019-01-31T11:41:08.382Z,5.20
2019-01-31T11:43:16.254Z,5.20
2019-01-31T11:45:51.516Z,5.20
2019-01-31T11:48:17.067Z,5.20
2019-01-31T11:50:29.611Z,5.20
2019-01-31T11:52:36.420Z,5.20
2019-01-31T11:54:57.215Z,5.20
2019-01-31T11:57:28.830Z,5.30
2019-01-31T11:59:31.887Z,5.30
2019-01-31T12:01:35.554Z,5.40
2019-01-31T12:03:38.896Z,5.40
2019-01-31T12:05:41.811Z,5.40
2019-01-31T12:07:44.790Z,5.40
2019-01-31T12:09:47.742Z,5.50
2019-01-31T12:11:50.699Z,5.50
2019-01-31T12:13:53.661Z,5.50
2019-01-31T12:15:56.586Z,5.50
2019-01-31T12:17:59.507Z,5.60
2019-01-31T12:20:02.435Z,5.60
2019-01-31T12:22:06.168Z,5.60
2019-01-31T12:24:16.193Z,5.60
2019-01-31T12:26:14.060Z,5.60
2019-01-31T12:28:17.351Z,5.70
2019-01-31T12:30:20.307Z,5.60
2019-01-31T12:32:23.301Z,5.70
2019-01-31T12:34:26.290Z,5.70
2019-01-31T12:36:29.962Z,5.70
2019-01-31T12:38:36.926Z,5.70
2019-01-31T12:40:37.458Z,5.70
2019-01-31T12:42:40.367Z,5.70
2019-01-31T12:44:44.218Z,5.70
2019-01-31T12:46:47.347Z,5.70
2019-01-31T12:48:51.048Z,5.70
2019-01-31T12:50:54.014Z,5.70
2019-01-31T12:52:57.233Z,5.70
2019-01-31T12:55:01.102Z,5.70
2019-01-31T12:57:04.007Z,5.70
2019-01-31T12:59:07.205Z,5.70
2019-01-31T13:01:10.893Z,5.70
2019-01-31T13:03:14.643Z,5.70
2019-01-31T13:05:17.562Z,5.70
2019-01-31T13:07:20.487Z,5.70
2019-01-31T13:09:23.426Z,5.70
2019-01-31T13:11:26.347Z,5.80
2019-01-31T13:13:29.830Z,5.80
2019-01-31T13:15:33.594Z,5.80
2019-01-31T13:17:36.642Z,5.70
2019-01-31T13:19:39.703Z,5.80
2019-01-31T13:21:43.382Z,5.80
2019-01-31T13:23:47.067Z,5.80
2019-01-31T13:25:50.311Z,5.70
2019-01-31T13:27:53.380Z,5.80
2019-01-31T13:29:57.062Z,5.80
2019-01-31T13:32:01.302Z,5.70
2019-01-31T13:34:04.493Z,5.80
2019-01-31T13:36:07.411Z,5.90
2019-01-31T13:38:10.706Z,5.90
2019-01-31T13:40:16.447Z,5.90
2019-01-31T13:42:19.472Z,5.90
2019-01-31T13:44:23.274Z,6.00
2019-01-31T13:46:26.943Z,6.00
2019-01-31T13:48:29.910Z,6.00
2019-01-31T13:50:32.807Z,6.00
2019-01-31T13:52:35.716Z,6.00
2019-01-31T13:54:39.623Z,6.00
2019-01-31T13:56:45.511Z,6.00
2019-01-31T13:58:47.116Z,6.00
2019-01-31T14:00:50.051Z,6.00
2019-01-31T14:02:52.989Z,6.00
2019-01-31T14:04:56.669Z,6.00
2019-01-31T14:06:59.630Z,6.00
2019-01-31T14:09:02.557Z,6.00
2019-01-31T14:11:06.252Z,5.90
2019-01-31T14:13:11.471Z,5.90
2019-01-31T14:15:13.959Z,5.90
2019-01-31T14:17:17.631Z,5.90
2019-01-31T14:19:20.987Z,5.90
2019-01-31T14:21:23.911Z,5.90
2019-01-31T14:23:26.823Z,5.80
2019-01-31T14:25:29.958Z,5.80
2019-01-31T14:27:32.986Z,5.80
2019-01-31T14:29:36.658Z,5.80
2019-01-31T14:31:39.600Z,5.70
2019-01-31T14:33:42.501Z,5.80
2019-01-31T14:35:45.458Z,5.80
2019-01-31T14:37:48.383Z,5.70
2019-01-31T14:39:51.394Z,5.70
2019-01-31T14:41:55.102Z,5.70
2019-01-31T14:43:58.032Z,5.70
2019-01-31T14:46:01.014Z,5.70
2019-01-31T14:48:03.955Z,5.60
2019-01-31T14:50:07.783Z,5.60
2019-01-31T14:52:10.690Z,5.50
2019-01-31T14:54:13.626Z,5.50
2019-01-31T14:56:16.534Z,5.40
2019-01-31T14:58:20.176Z,5.40
2019-01-31T15:00:24.462Z,5.40
2019-01-31T15:02:27.383Z,5.40
2019-01-31T15:04:31.159Z,5.30
2019-01-31T15:06:34.089Z,5.30
2019-01-31T15:08:37.006Z,5.30
2019-01-31T15:10:39.939Z,5.30
2019-01-31T15:12:43.611Z,5.30
2019-01-31T15:14:46.612Z,5.20
2019-01-31T15:16:50.440Z,5.20
2019-01-31T15:18:53.354Z,5.20
2019-01-31T15:20:56.258Z,5.20
2019-01-31T15:23:00.747Z,5.20
2019-01-31T15:25:03.663Z,5.20
2019-01-31T15:27:06.573Z,5.20
2019-01-31T15:29:10.273Z,5.20
2019-01-31T15:31:13.175Z,5.20
2019-01-31T15:33:16.123Z,5.20
2019-01-31T15:35:19.166Z,5.30
2019-01-31T15:37:22.089Z,5.30
2019-01-31T15:39:25.754Z,5.30
2019-01-31T15:41:28.690Z,5.30
2019-01-31T15:43:32.447Z,5.30
2019-01-31T15:45:35.454Z,5.30
2019-01-31T15:47:39.255Z,5.30
2019-01-31T15:49:42.930Z,5.30
2019-01-31T15:51:45.939Z,5.30
2019-01-31T15:53:49.742Z,5.30
2019-01-31T15:55:53.418Z,5.30
2019-01-31T15:57:56.338Z,5.20
2019-01-31T16:00:00.197Z,5.20
2019-01-31T16:02:03.823Z,5.20
2019-01-31T16:04:07.496Z,5.20
2019-01-31T16:06:10.433Z,5.20
2019-01-31T16:08:13.350Z,5.20
2019-01-31T16:10:16.370Z,5.20
2019-01-31T16:12:20.630Z,5.20
2019-01-31T16:14:23.511Z,5.20
2019-01-31T16:16:26.549Z,5.20
2019-01-31T16:18:30.352Z,5.10
2019-01-31T16:20:34.894Z,5.10
2019-01-31T16:22:37.811Z,5.10
2019-01-31T16:24:40.939Z,5.10
2019-01-31T16:26:44.606Z,5.10
2019-01-31T16:28:47.630Z,5.10
2019-01-31T16:30:50.542Z,5.10
2019-01-31T16:32:53.457Z,5.00
2019-01-31T16:34:56.468Z,5.00
2019-01-31T16:37:00.279Z,5.00
2019-01-31T16:39:04.018Z,5.00
2019-01-31T16:41:06.922Z,5.00
2019-01-31T16:43:10.096Z,5.00
2019-01-31T16:45:13.004Z,5.00
2019-01-31T16:47:16.699Z,4.90
2019-01-31T16:49:19.665Z,4.90
2019-01-31T16:51:22.572Z,4.90
2019-01-31T16:53:26.989Z,4.80
2019-01-31T16:55:30.712Z,4.70
2019-01-31T16:57:34.409Z,4.70
2019-01-31T16:59:38.075Z,4.70
2019-01-31T17:01:42.589Z,4.60
2019-01-31T17:03:45.509Z,4.60
2019-01-31T17:05:49.187Z,4.50
2019-01-31T17:07:52.352Z,4.50
2019-01-31T17:09:55.223Z,4.50
2019-01-31T17:11:58.226Z,4.40
2019-01-31T17:14:01.277Z,4.30
2019-01-31T17:16:04.219Z,4.30
2019-01-31T17:18:07.892Z,4.20
2019-01-31T17:20:11.793Z,4.20
2019-01-31T17:22:18.821Z,4.10
2019-01-31T17:24:23.226Z,4.00
2019-01-31T17:26:27.036Z,3.90
2019-01-31T17:28:29.947Z,3.90
2019-01-31T17:30:32.987Z,3.90
2019-01-31T17:32:36.788Z,3.80
2019-01-31T17:34:40.462Z,3.70
2019-01-31T17:36:45.949Z,3.80
2019-01-31T17:38:47.272Z,3.60
2019-01-31T17:40:50.952Z,3.60
2019-01-31T17:42:53.955Z,3.50
2019-01-31T17:44:57.860Z,3.50
2019-01-31T17:47:01.626Z,3.40
2019-01-31T17:49:04.536Z,3.40
2019-01-31T17:51:08.243Z,3.30
2019-01-31T17:53:11.922Z,3.30
2019-01-31T17:55:14.839Z,3.30
2019-01-31T17:57:18.231Z,3.30
2019-01-31T17:59:21.148Z,3.20
2019-01-31T18:01:24.183Z,3.20
2019-01-31T18:03:27.997Z,3.20
2019-01-31T18:05:31.172Z,3.20
2019-01-31T18:07:34.843Z,3.10
2019-01-31T18:09:37.777Z,3.10
2019-01-31T18:11:40.690Z,3.10
2019-01-31T18:13:43.597Z,3.10
2019-01-31T18:15:47.316Z,3.10
2019-01-31T18:17:50.986Z,3.10
2019-01-31T18:19:53.999Z,3.10
2019-01-31T18:21:57.735Z,3.10
2019-01-31T18:24:00.642Z,3.10
2019-01-31T18:26:03.556Z,3.10
2019-01-31T18:28:07.292Z,3.10
2019-01-31T18:30:23.016Z,3.10
2019-01-31T18:32:26.028Z,3.10
2019-01-31T18:34:29.031Z,3.00
2019-01-31T18:36:31.951Z,3.00
2019-01-31T18:38:34.851Z,3.00
2019-01-31T18:40:37.795Z,2.90
2019-01-31T18:42:40.698Z,2.90
2019-01-31T18:44:43.847Z,2.90
2019-01-31T18:46:46.808Z,2.90
2019-01-31T18:48:50.479Z,2.80
2019-01-31T18:50:53.490Z,2.80
2019-01-31T18:52:57.292Z,2.80
2019-01-31T18:55:00.327Z,2.80
2019-01-31T18:57:03.258Z,2.80
2019-01-31T18:59:06.956Z,2.70
2019-01-31T19:01:11.479Z,2.70
2019-01-31T19:03:15.194Z,2.70
2019-01-31T19:05:19.670Z,2.70
2019-01-31T19:07:22.682Z,2.70
2019-01-31T19:09:26.589Z,2.70
2019-01-31T19:11:30.259Z,2.70
2019-01-31T19:13:33.185Z,2.60
2019-01-31T19:15:36.122Z,2.70
2019-01-31T19:17:39.218Z,2.60
2019-01-31T19:19:43.650Z,2.60
2019-01-31T19:21:48.274Z,2.60
2019-01-31T19:23:51.950Z,2.60
2019-01-31T19:25:55.164Z,2.60
2019-01-31T19:27:58.961Z,2.50
2019-01-31T19:30:02.655Z,2.50
2019-01-31T19:32:06.669Z,2.50
2019-01-31T19:34:10.344Z,2.50
2019-01-31T19:36:13.354Z,2.50
2019-01-31T19:38:17.154Z,2.50
2019-01-31T19:40:22.380Z,2.50
2019-01-31T19:42:26.058Z,2.50
2019-01-31T19:44:29.182Z,2.50
2019-01-31T19:46:32.889Z,2.50
2019-01-31T19:48:35.802Z,2.50
2019-01-31T19:50:38.890Z,2.50
2019-01-31T19:52:42.531Z,2.50
2019-01-31T19:54:45.439Z,2.50
2019-01-31T19:56:48.443Z,2.50
2019-01-31T19:58:51.359Z,2.50
2019-01-31T20:00:54.393Z,2.50
2019-01-31T20:02:57.763Z,2.50
2019-01-31T20:05:01.436Z,2.60
2019-01-31T20:07:04.371Z,2.60
2019-01-31T20:09:07.287Z,2.50
2019-01-31T20:11:10.190Z,2.60
2019-01-31T20:13:13.221Z,2.60
2019-01-31T20:15:16.126Z,2.60
2019-01-31T20:17:19.035Z,2.60
2019-01-31T20:19:21.975Z,2.60
2019-01-31T20:21:24.883Z,2.60
2019-01-31T20:23:27.822Z,2.60
2019-01-31T20:25:31.510Z,2.70
2019-01-31T20:27:35.563Z,2.70
2019-01-31T20:29:37.346Z,2.70
2019-01-31T20:31:40.271Z,2.70
2019-01-31T20:33:43.179Z,2.70
2019-01-31T20:35:46.127Z,2.70
2019-01-31T20:37:49.048Z,2.80
2019-01-31T20:39:51.969Z,2.80
2019-01-31T20:41:55.670Z,2.80
2019-01-31T20:43:59.349Z,2.80
2019-01-31T20:46:02.352Z,2.80
2019-01-31T20:48:06.063Z,2.80
2019-01-31T20:50:10.656Z,2.80
2019-01-31T20:52:13.574Z,2.80
2019-01-31T20:54:16.550Z,2.80
2019-01-31T20:56:19.464Z,2.90
2019-01-31T20:58:22.379Z,2.90
2019-01-31T21:00:29.789Z,2.90
2019-01-31T21:02:33.572Z,3.00
2019-01-31T21:04:38.002Z,3.00
2019-01-31T21:06:42.017Z,3.00
2019-01-31T21:08:44.736Z,3.00
2019-01-31T21:10:48.288Z,3.00
2019-01-31T21:12:52.604Z,3.00
2019-01-31T21:14:56.291Z,3.10
2019-01-31T21:16:59.999Z,3.10
2019-01-31T21:19:03.704Z,3.10
2019-01-31T21:21:06.633Z,3.10
2019-01-31T21:23:09.649Z,3.10
2019-01-31T21:25:12.572Z,3.10
2019-01-31T21:27:15.552Z,3.10
2019-01-31T21:29:19.249Z,3.10
2019-01-31T21:31:22.166Z,3.10
2019-01-31T21:33:25.067Z,3.20
2019-01-31T21:35:28.028Z,3.10
2019-01-31T21:37:30.939Z,3.10
2019-01-31T21:39:33.940Z,3.10
2019-01-31T21:41:36.928Z,3.10
2019-01-31T21:43:39.845Z,3.10
2019-01-31T21:45:42.889Z,3.10
2019-01-31T21:47:46.564Z,3.10
2019-01-31T21:49:49.481Z,3.00
2019-01-31T21:51:53.183Z,3.00
2019-01-31T21:53:56.843Z,3.00
2019-01-31T21:55:59.755Z,3.00
2019-01-31T21:58:03.475Z,3.00
2019-01-31T22:00:06.395Z,3.00
2019-01-31T22:02:09.306Z,3.00
2019-01-31T22:04:14.042Z,3.00
2019-01-31T22:06:22.644Z,3.00
2019-01-31T22:08:20.843Z,3.10
2019-01-31T22:10:23.865Z,3.10
2019-01-31T22:12:26.788Z,3.10
2019-01-31T22:14:30.703Z,3.10
2019-01-31T22:16:34.495Z,3.10
2019-01-31T22:18:39.042Z,3.10
2019-01-31T22:20:42.250Z,3.10
2019-01-31T22:22:45.185Z,3.10
2019-01-31T22:24:48.869Z,3.10
2019-01-31T22:26:51.804Z,3.10
2019-01-31T22:28:55.279Z,3.20
2019-01-31T22:30:58.199Z,3.20
2019-01-31T22:33:01.239Z,3.20
2019-01-31T22:35:04.964Z,3.30
2019-01-31T22:37:07.894Z,3.30
2019-01-31T22:39:10.911Z,3.30
2019-01-31T22:41:13.887Z,3.30
2019-01-31T22:43:16.830Z,3.30
2019-01-31T22:45:19.842Z,3.40
2019-01-31T22:47:26.344Z,3.40
2019-01-31T22:49:26.707Z,3.40
2019-01-31T22:51:30.391Z,3.50
2019-01-31T22:53:33.371Z,3.50
2019-01-31T22:55:36.720Z,3.50
2019-01-31T22:57:40.579Z,3.50
2019-01-31T22:59:44.890Z,3.60
2019-01-31T23:01:48.637Z,3.60
2019-01-31T23:03:51.550Z,3.50
2019-01-31T23:05:54.471Z,3.60
2019-01-31T23:07:57.417Z,3.50
2019-01-31T23:10:00.339Z,3.60
2019-01-31T23:12:04.765Z,3.60
2019-01-31T23:14:08.676Z,3.60
2019-01-31T23:16:13.303Z,3.60
2019-01-31T23:18:16.975Z,3.60
2019-01-31T23:20:19.898Z,3.60
2019-01-31T23:22:22.805Z,3.70
2019-01-31T23:24:25.715Z,3.70
2019-01-31T23:26:43.567Z,3.70
2019-01-31T23:38:07.910Z,3.80
2019-01-31T23:48:06.566Z,3.50
2019-01-31T23:58:07.840Z,3.20
